createdAt,value
2017-11-03T00:02:22.526Z,16.27
2017-11-03T00:15:51.617Z,23.33
2017-11-03T00:18:18.520Z,12.47
2017-11-03T00:20:45.444Z,13.33
2017-11-03T00:23:12.350Z,14.23
2017-11-03T00:25:39.273Z,25.67
2017-11-03T00:28:06.997Z,24.60
2017-11-03T00:30:33.932Z,23.77
2017-11-03T00:33:00.844Z,13.70
2017-11-03T00:35:27.766Z,13.17
2017-11-03T00:37:56.658Z,25.30
2017-11-03T00:40:24.353Z,14.90
2017-11-03T00:42:51.256Z,21.50
2017-11-03T00:45:18.172Z,18.17
2017-11-03T00:47:45.085Z,18.30
2017-11-03T00:50:12.033Z,26.93
2017-11-03T00:52:39.000Z,20.60
2017-11-03T00:55:05.897Z,18.25
2017-11-03T00:57:33.571Z,11.83
2017-11-03T01:00:01.400Z,19.80
2017-11-03T01:02:28.320Z,20.60
2017-11-03T01:04:55.222Z,22.73
2017-11-03T01:07:23.064Z,14.70
2017-11-03T01:09:51.750Z,14.93
2017-11-03T01:12:19.431Z,14.57
2017-11-03T01:14:46.344Z,20.27
2017-11-03T01:17:13.304Z,16.53
2017-11-03T01:19:40.976Z,28.20
2017-11-03T01:22:07.911Z,13.83
2017-11-03T01:24:35.582Z,21.17
2017-11-03T01:27:03.258Z,16.63
2017-11-03T01:29:30.179Z,17.27
2017-11-03T01:31:57.850Z,29.20
2017-11-03T01:34:25.526Z,19.13
2017-11-03T01:36:52.445Z,22.20
2017-11-03T01:39:19.421Z,16.80
2017-11-03T01:41:46.315Z,11.50
2017-11-03T01:44:13.238Z,24.47
2017-11-03T01:46:41.184Z,19.20
2017-11-03T01:49:08.100Z,28.13
2017-11-03T01:51:36.012Z,19.10
2017-11-03T01:54:03.692Z,20.57
2017-11-03T01:56:30.602Z,11.73
2017-11-03T01:58:58.601Z,23.00
2017-11-03T02:01:25.785Z,18.97
2017-11-03T02:03:52.755Z,20.90
2017-11-03T02:06:19.671Z,24.57
2017-11-03T02:08:46.590Z,22.00
2017-11-03T02:11:13.514Z,18.03
2017-11-03T02:13:41.191Z,12.00
2017-11-03T02:16:08.100Z,29.53
2017-11-03T02:18:35.033Z,19.63
2017-11-03T02:21:01.931Z,16.97
2017-11-03T02:23:28.853Z,16.17
2017-11-03T02:25:56.545Z,25.33
2017-11-03T02:28:23.469Z,22.50
2017-11-03T02:30:52.125Z,19.47
2017-11-03T02:33:19.068Z,19.40
2017-11-03T02:35:45.965Z,15.73
2017-11-03T02:38:13.784Z,16.30
2017-11-03T02:40:42.274Z,15.63
2017-11-03T02:43:09.940Z,19.30
2017-11-03T02:45:37.624Z,22.43
2017-11-03T02:48:04.532Z,13.57
2017-11-03T02:50:31.494Z,24.40
2017-11-03T02:52:59.344Z,24.63
2017-11-03T02:55:27.035Z,14.00
2017-11-03T02:57:53.926Z,20.42
2017-11-03T03:00:21.612Z,32.20
2017-11-03T03:02:49.293Z,15.00
2017-11-03T03:05:16.246Z,14.70
2017-11-03T03:07:43.198Z,15.35
2017-11-03T03:10:10.108Z,14.23
2017-11-03T03:12:37.787Z,24.12
2017-11-03T03:15:04.711Z,29.08
2017-11-03T03:17:33.400Z,21.73
2017-11-03T03:20:00.341Z,19.50
2017-11-03T03:22:29.020Z,9.93
2017-11-03T03:24:55.944Z,10.55
2017-11-03T03:27:22.833Z,29.33
2017-11-03T03:29:49.772Z,21.12
2017-11-03T03:32:17.432Z,24.40
2017-11-03T03:34:45.145Z,19.60
2017-11-03T03:37:12.056Z,12.48
2017-11-03T03:39:38.998Z,24.67
2017-11-03T03:42:05.909Z,21.48
2017-11-03T03:44:32.837Z,10.95
2017-11-03T03:46:59.741Z,15.43
2017-11-03T03:49:26.689Z,12.07
2017-11-03T03:51:54.662Z,16.10
2017-11-03T03:54:25.323Z,29.48
2017-11-03T03:56:53.231Z,23.30
2017-11-03T03:59:22.825Z,19.95
2017-11-03T04:01:49.797Z,15.03
2017-11-03T04:04:17.636Z,26.20
2017-11-03T04:06:44.560Z,23.83
2017-11-03T04:09:11.468Z,21.45
2017-11-03T04:11:38.399Z,12.20
2017-11-03T04:14:05.320Z,17.90
2017-11-03T04:16:32.232Z,15.23
2017-11-03T04:18:59.284Z,21.60
2017-11-03T04:21:28.709Z,15.20
2017-11-03T04:23:56.392Z,12.20
2017-11-03T04:26:23.293Z,12.90
2017-11-03T04:28:50.211Z,12.70
2017-11-03T04:31:17.114Z,18.73
2017-11-03T04:33:44.793Z,16.87
2017-11-03T04:36:11.705Z,17.08
2017-11-03T04:38:39.392Z,19.33
2017-11-03T04:41:07.193Z,19.70
2017-11-03T04:43:34.102Z,14.50
2017-11-03T04:46:01.019Z,23.17
2017-11-03T04:48:27.952Z,12.50
2017-11-03T04:50:54.857Z,19.40
2017-11-03T04:53:21.764Z,17.35
2017-11-03T04:55:49.442Z,16.50
2017-11-03T04:58:16.352Z,25.37
2017-11-03T05:00:43.267Z,20.70
2017-11-03T05:03:10.176Z,15.10
2017-11-03T05:05:37.093Z,12.90
2017-11-03T05:08:04.780Z,16.17
2017-11-03T05:10:31.691Z,24.47
2017-11-03T05:12:58.583Z,16.83
2017-11-03T05:15:25.511Z,15.10
2017-11-03T05:17:52.455Z,21.77
2017-11-03T05:20:19.399Z,23.13
2017-11-03T05:22:46.315Z,17.53
2017-11-03T05:25:14.113Z,10.70
2017-11-03T05:27:41.033Z,20.30
2017-11-03T05:30:08.717Z,14.93
2017-11-03T05:32:36.121Z,19.70
2017-11-03T05:35:03.042Z,25.00
2017-11-03T05:37:29.987Z,13.37
2017-11-03T05:39:56.884Z,17.80
2017-11-03T05:42:24.596Z,16.93
2017-11-03T05:44:51.931Z,24.00
2017-11-03T05:47:19.087Z,14.23
2017-11-03T05:49:47.978Z,16.97
2017-11-03T05:52:14.933Z,14.97
2017-11-03T05:54:42.841Z,22.83
2017-11-03T05:57:09.743Z,18.20
2017-11-03T05:59:36.657Z,14.33
2017-11-03T06:02:03.561Z,15.93
2017-11-03T06:04:30.669Z,17.83
2017-11-03T06:06:57.663Z,22.53
2017-11-03T06:09:24.581Z,15.20
2017-11-03T06:11:51.472Z,22.10
2017-11-03T06:14:19.141Z,13.00
2017-11-03T06:16:46.798Z,25.30
2017-11-03T06:19:15.518Z,16.60
2017-11-03T06:21:42.456Z,20.13
2017-11-03T06:24:09.378Z,16.73
2017-11-03T06:26:36.286Z,13.43
2017-11-03T06:29:04.174Z,19.83
2017-11-03T06:31:31.094Z,10.70
2017-11-03T06:33:58.006Z,14.53
2017-11-03T06:36:25.932Z,13.83
2017-11-03T06:38:54.629Z,11.70
2017-11-03T06:41:23.363Z,11.70
2017-11-03T06:43:52.195Z,19.17
2017-11-03T06:46:20.105Z,27.90
2017-11-03T06:48:50.718Z,14.87
2017-11-03T06:51:17.748Z,17.13
2017-11-03T06:53:44.692Z,17.40
2017-11-03T06:56:13.360Z,19.58
2017-11-03T06:58:44.016Z,16.20
2017-11-03T07:01:12.842Z,15.67
2017-11-03T07:03:41.683Z,21.03
2017-11-03T07:06:09.356Z,18.57
2017-11-03T07:08:36.295Z,25.53
2017-11-03T07:11:03.206Z,30.17
2017-11-03T07:13:31.811Z,25.10
2017-11-03T07:16:00.508Z,27.50
2017-11-03T07:18:27.416Z,19.10
2017-11-03T07:20:54.376Z,20.57
2017-11-03T07:23:23.104Z,22.00
2017-11-03T07:25:51.225Z,21.30
2017-11-03T07:28:18.928Z,23.53
2017-11-03T07:30:45.869Z,17.73
2017-11-03T07:33:12.792Z,15.03
2017-11-03T07:35:40.481Z,19.93
2017-11-03T07:38:08.313Z,23.90
2017-11-03T07:40:36.029Z,26.43
2017-11-03T07:43:04.095Z,19.03
2017-11-03T07:45:31.008Z,23.40
2017-11-03T07:47:58.707Z,28.37
2017-11-03T07:50:25.629Z,12.03
2017-11-03T07:52:52.538Z,28.73
2017-11-03T07:55:23.630Z,14.03
2017-11-03T07:57:51.585Z,28.60
2017-11-03T08:00:18.514Z,20.83
2017-11-03T08:02:47.079Z,18.80
2017-11-03T08:05:14.787Z,16.50
2017-11-03T08:07:42.662Z,14.73
2017-11-03T08:10:11.537Z,15.13
2017-11-03T08:12:39.388Z,19.50
2017-11-03T08:15:06.316Z,24.50
2017-11-03T08:17:33.990Z,21.23
2017-11-03T08:20:01.698Z,19.40
2017-11-03T08:22:28.694Z,35.00
2017-11-03T08:24:55.667Z,16.17
2017-11-03T08:27:23.940Z,16.90
2017-11-03T08:29:50.917Z,23.13
2017-11-03T08:32:17.821Z,17.27
2017-11-03T08:34:44.750Z,20.67
2017-11-03T08:37:11.673Z,19.63
2017-11-03T08:39:38.616Z,19.37
2017-11-03T08:42:05.525Z,20.50
2017-11-03T08:44:33.452Z,18.93
2017-11-03T08:47:01.153Z,18.37
2017-11-03T08:49:28.844Z,30.40
2017-11-03T08:51:57.734Z,29.27
2017-11-03T08:54:24.651Z,22.87
2017-11-03T08:56:51.598Z,19.43
2017-11-03T08:59:18.553Z,17.83
2017-11-03T09:01:47.461Z,17.60
2017-11-03T09:04:14.401Z,20.90
2017-11-03T09:06:41.342Z,23.20
2017-11-03T09:09:08.265Z,21.20
2017-11-03T09:11:35.200Z,20.07
2017-11-03T09:14:03.128Z,16.90
2017-11-03T09:16:30.853Z,28.17
2017-11-03T09:18:57.766Z,38.07
2017-11-03T09:21:24.693Z,17.30
2017-11-03T09:23:51.625Z,18.17
2017-11-03T09:26:19.307Z,16.33
2017-11-03T09:28:46.220Z,16.00
2017-11-03T09:31:13.134Z,29.93
2017-11-03T09:33:40.052Z,21.90
2017-11-03T09:36:06.986Z,21.17
2017-11-03T09:38:34.030Z,16.00
2017-11-03T09:41:00.968Z,22.00
2017-11-03T09:43:27.871Z,36.53
2017-11-03T09:45:54.797Z,20.70
2017-11-03T09:48:22.711Z,24.30
2017-11-03T09:50:50.451Z,16.87
2017-11-03T09:53:17.359Z,32.07
2017-11-03T09:55:44.285Z,27.57
2017-11-03T09:58:11.196Z,26.93
2017-11-03T10:00:38.921Z,26.30
2017-11-03T10:03:05.872Z,21.10
2017-11-03T10:05:32.780Z,33.63
2017-11-03T10:07:59.710Z,27.47
2017-11-03T10:10:26.629Z,26.50
2017-11-03T10:12:54.334Z,26.43
2017-11-03T10:15:21.247Z,25.48
2017-11-03T10:17:48.952Z,24.70
2017-11-03T10:20:15.904Z,26.77
2017-11-03T10:22:43.748Z,25.73
2017-11-03T10:25:11.607Z,27.67
2017-11-03T10:27:38.529Z,27.27
2017-11-03T10:30:06.207Z,24.17
2017-11-03T10:32:33.161Z,24.63
2017-11-03T10:35:01.999Z,24.80
2017-11-03T10:37:29.904Z,30.80
2017-11-03T10:39:57.586Z,25.37
2017-11-03T10:42:24.528Z,23.03
2017-11-03T10:44:51.460Z,19.43
2017-11-03T10:47:18.398Z,22.43
2017-11-03T10:49:47.992Z,35.47
2017-11-03T10:52:15.812Z,30.27
2017-11-03T10:54:42.732Z,25.60
2017-11-03T10:57:09.680Z,25.00
2017-11-03T10:59:36.591Z,21.80
2017-11-03T11:02:04.289Z,21.50
2017-11-03T11:04:32.133Z,19.67
2017-11-03T11:06:59.854Z,20.53
2017-11-03T11:09:26.759Z,20.20
2017-11-03T11:11:53.672Z,23.30
2017-11-03T11:14:20.596Z,20.50
2017-11-03T11:16:47.527Z,27.67
2017-11-03T11:19:15.424Z,23.10
2017-11-03T11:21:43.315Z,18.27
2017-11-03T11:24:10.240Z,25.30
2017-11-03T11:26:38.945Z,35.57
2017-11-03T11:29:05.841Z,35.90
2017-11-03T11:31:32.771Z,26.40
2017-11-03T11:33:59.692Z,29.67
2017-11-03T11:36:26.632Z,35.10
2017-11-03T11:38:53.562Z,39.47
2017-11-03T11:41:20.513Z,33.23
2017-11-03T11:43:47.439Z,34.83
2017-11-03T11:46:17.289Z,30.63
2017-11-03T11:48:45.035Z,34.13
2017-11-03T11:51:11.977Z,31.97
2017-11-03T11:53:39.828Z,41.40
2017-11-03T11:56:08.518Z,32.27
2017-11-03T11:58:36.343Z,44.60
2017-11-03T12:01:03.248Z,35.37
2017-11-03T12:03:30.181Z,40.73
2017-11-03T12:05:57.088Z,32.80
2017-11-03T12:08:24.027Z,31.97
2017-11-03T12:10:59.268Z,43.50
2017-11-03T12:13:26.226Z,40.87
2017-11-03T12:15:57.040Z,40.30
2017-11-03T12:18:25.086Z,36.97
2017-11-03T12:20:52.014Z,38.17
2017-11-03T12:23:19.871Z,34.27
2017-11-03T12:25:47.223Z,48.30
2017-11-03T12:28:15.288Z,38.97
2017-11-03T12:30:42.196Z,38.77
2017-11-03T12:33:09.121Z,35.40
2017-11-03T12:35:36.241Z,37.53
2017-11-03T12:38:03.193Z,30.20
2017-11-03T12:40:30.113Z,34.17
2017-11-03T12:42:57.828Z,28.37
2017-11-03T12:45:24.778Z,27.60
2017-11-03T12:47:51.703Z,41.00
2017-11-03T12:50:18.647Z,25.70
2017-11-03T12:52:46.624Z,20.80
2017-11-03T12:55:14.536Z,35.83
2017-11-03T12:57:42.217Z,20.93
2017-11-03T13:00:09.140Z,24.93
2017-11-03T13:02:38.064Z,20.63
2017-11-03T13:05:04.979Z,19.43
2017-11-03T13:07:31.890Z,25.30
2017-11-03T13:09:58.812Z,22.33
2017-11-03T13:12:25.741Z,22.90
2017-11-03T13:14:52.669Z,20.23
2017-11-03T13:17:19.583Z,19.23
2017-11-03T13:19:46.512Z,41.60
2017-11-03T13:22:13.422Z,22.97
2017-11-03T13:24:40.367Z,23.23
2017-11-03T13:27:07.275Z,23.23
2017-11-03T13:29:34.968Z,23.97
2017-11-03T13:32:02.789Z,17.90
2017-11-03T13:34:29.718Z,17.73
2017-11-03T13:36:56.641Z,17.17
2017-11-03T13:39:23.546Z,13.80
2017-11-03T13:41:51.404Z,14.70
2017-11-03T13:44:20.108Z,13.43
2017-11-03T13:46:47.019Z,15.17
2017-11-03T13:49:14.903Z,13.10
2017-11-03T13:51:41.811Z,12.33
2017-11-03T13:54:08.736Z,16.90
2017-11-03T13:56:36.670Z,16.20
2017-11-03T13:59:05.556Z,21.90
2017-11-03T14:01:32.464Z,16.07
2017-11-03T14:03:59.388Z,20.83
2017-11-03T14:06:26.313Z,22.17
2017-11-03T14:08:53.256Z,15.63
2017-11-03T14:11:20.157Z,18.40
2017-11-03T14:13:47.079Z,24.80
2017-11-03T14:16:14.989Z,13.60
2017-11-03T14:18:42.893Z,14.07
2017-11-03T14:21:09.810Z,15.80
2017-11-03T14:23:36.761Z,12.10
2017-11-03T14:26:03.688Z,17.07
2017-11-03T14:28:32.392Z,13.20
2017-11-03T14:30:59.304Z,21.97
2017-11-03T14:33:26.985Z,22.83
2017-11-03T14:35:53.913Z,30.27
2017-11-03T14:38:21.613Z,41.97
2017-11-03T14:40:48.548Z,17.23
2017-11-03T14:43:15.470Z,27.93
2017-11-03T14:45:43.181Z,22.57
2017-11-03T14:48:14.494Z,30.33
2017-11-03T14:50:42.429Z,15.70
2017-11-03T14:53:11.078Z,24.73
2017-11-03T14:55:37.997Z,25.07
2017-11-03T14:58:04.936Z,20.23
2017-11-03T15:00:32.862Z,17.57
2017-11-03T15:03:10.772Z,24.33
2017-11-03T15:05:37.708Z,18.47
2017-11-03T15:08:05.665Z,20.70
2017-11-03T15:10:36.021Z,20.10
2017-11-03T15:13:03.717Z,34.43
2017-11-03T15:15:31.123Z,19.33
2017-11-03T15:17:58.034Z,20.13
2017-11-03T15:20:25.962Z,16.70
2017-11-03T15:22:52.885Z,24.30
2017-11-03T15:25:20.614Z,21.10
2017-11-03T15:27:47.546Z,21.30
2017-11-03T15:30:16.409Z,20.80
2017-11-03T15:32:43.319Z,18.17
2017-11-03T15:35:18.705Z,23.17
2017-11-03T15:37:49.546Z,23.50
2017-11-03T15:40:16.487Z,28.10
2017-11-03T15:42:47.032Z,21.30
2017-11-03T15:45:13.953Z,26.77
2017-11-03T15:47:40.887Z,24.97
2017-11-03T15:50:08.584Z,28.43
2017-11-03T15:52:35.533Z,24.37
2017-11-03T15:55:02.554Z,18.13
2017-11-03T15:57:30.021Z,23.40
2017-11-03T15:59:56.936Z,24.83
2017-11-03T16:02:25.658Z,25.63
2017-11-03T16:04:53.585Z,27.17
2017-11-03T16:07:21.256Z,24.70
2017-11-03T16:09:48.183Z,20.97
2017-11-03T16:12:15.881Z,21.87
2017-11-03T16:14:42.855Z,22.67
2017-11-03T16:17:09.770Z,23.03
2017-11-03T16:19:36.742Z,26.13
2017-11-03T16:22:03.669Z,25.60
2017-11-03T16:24:33.945Z,24.87
2017-11-03T16:27:00.880Z,24.90
2017-11-03T16:29:28.813Z,21.73
2017-11-03T16:31:55.826Z,25.60
2017-11-03T16:34:22.759Z,19.77
2017-11-03T16:36:50.439Z,21.20
2017-11-03T16:39:18.284Z,26.20
2017-11-03T16:41:45.987Z,23.07
2017-11-03T16:44:13.071Z,22.73
2017-11-03T16:46:39.992Z,26.20
2017-11-03T16:49:06.909Z,25.67
2017-11-03T16:51:35.756Z,21.60
2017-11-03T16:54:02.680Z,25.93
2017-11-03T16:56:32.352Z,25.50
2017-11-03T16:58:59.265Z,25.67
2017-11-03T17:01:28.898Z,21.47
2017-11-03T17:03:59.048Z,25.80
2017-11-03T17:06:25.973Z,27.60
2017-11-03T17:08:52.907Z,22.23
2017-11-03T17:11:19.831Z,25.80
2017-11-03T17:13:52.199Z,21.87
2017-11-03T17:16:19.900Z,27.80
2017-11-03T17:18:46.812Z,38.00
2017-11-03T17:21:15.700Z,27.30
2017-11-03T17:23:43.387Z,26.17
2017-11-03T17:26:10.288Z,23.53
2017-11-03T17:28:38.184Z,31.53
2017-11-03T17:31:10.353Z,25.67
2017-11-03T17:33:38.232Z,24.37
2017-11-03T17:36:05.161Z,26.03
2017-11-03T17:38:32.133Z,28.93
2017-11-03T17:41:02.945Z,28.23
2017-11-03T17:43:29.872Z,22.87
2017-11-03T17:45:56.788Z,26.37
2017-11-03T17:48:23.707Z,25.50
2017-11-03T17:50:50.608Z,35.23
2017-11-03T17:53:18.492Z,26.20
2017-11-03T17:55:46.337Z,30.00
2017-11-03T17:58:15.040Z,30.67
2017-11-03T18:00:45.716Z,27.40
2017-11-03T18:03:14.609Z,35.87
2017-11-03T18:05:41.539Z,30.23
2017-11-03T18:08:09.488Z,34.80
2017-11-03T18:10:37.424Z,27.40
2017-11-03T18:13:05.113Z,31.17
2017-11-03T18:15:32.044Z,28.23
2017-11-03T18:18:01.726Z,30.70
2017-11-03T18:20:28.672Z,37.70
2017-11-03T18:22:55.596Z,29.83
2017-11-03T18:25:25.180Z,32.60
2017-11-03T18:27:53.135Z,29.33
2017-11-03T18:30:20.989Z,30.97
2017-11-03T18:32:48.005Z,29.33
2017-11-03T18:35:14.956Z,34.13
2017-11-03T18:37:50.547Z,39.87
2017-11-03T18:40:17.460Z,40.47
2017-11-03T18:42:44.406Z,43.17
2017-11-03T18:45:12.078Z,51.53
2017-11-03T18:47:46.113Z,44.60
2017-11-03T18:50:13.032Z,48.43
2017-11-03T18:52:44.376Z,44.57
2017-11-03T18:55:12.261Z,43.40
2017-11-03T18:57:39.213Z,39.90
2017-11-03T19:00:06.130Z,38.23
2017-11-03T19:02:33.833Z,38.97
2017-11-03T19:05:00.754Z,40.60
2017-11-03T19:07:28.637Z,34.27
2017-11-03T19:09:56.595Z,42.43
2017-11-03T19:12:23.510Z,35.00
2017-11-03T19:14:53.563Z,32.73
2017-11-03T19:17:23.482Z,37.43
2017-11-03T19:19:51.436Z,38.30
2017-11-03T19:22:18.378Z,36.30
2017-11-03T19:24:45.321Z,35.90
2017-11-03T19:27:13.187Z,37.00
2017-11-03T19:29:40.111Z,35.33
2017-11-03T19:32:10.941Z,30.93
2017-11-03T19:34:38.659Z,32.97
2017-11-03T19:37:05.586Z,35.00
2017-11-03T19:39:33.452Z,31.33
2017-11-03T19:42:00.427Z,33.90
2017-11-03T19:44:27.337Z,33.90
2017-11-03T19:46:55.205Z,32.23
2017-11-03T19:49:22.144Z,31.20
2017-11-03T19:51:50.999Z,32.27
2017-11-03T19:54:21.965Z,49.53
2017-11-03T19:56:48.892Z,31.37
2017-11-03T19:59:16.604Z,30.07
2017-11-03T20:01:48.261Z,36.50
2017-11-03T20:04:15.198Z,34.57
2017-11-03T20:06:42.127Z,35.83
2017-11-03T20:09:09.053Z,30.70
2017-11-03T20:11:36.735Z,28.33
2017-11-03T20:14:03.685Z,39.13
2017-11-03T20:16:32.568Z,35.07
2017-11-03T20:18:59.507Z,44.10
2017-11-03T20:21:26.500Z,34.07
2017-11-03T20:23:54.328Z,33.83
2017-11-03T20:26:23.224Z,39.20
2017-11-03T20:28:55.308Z,33.40
2017-11-03T20:31:22.497Z,31.30
2017-11-03T20:33:50.375Z,44.43
2017-11-03T20:36:18.071Z,37.80
2017-11-03T20:38:45.898Z,37.50
2017-11-03T20:41:12.835Z,41.27
2017-11-03T20:43:41.460Z,36.40
2017-11-03T20:46:08.419Z,47.50
2017-11-03T20:48:35.349Z,110.77
2017-11-03T20:51:02.306Z,41.80
2017-11-03T20:53:30.149Z,50.70
2017-11-03T20:55:57.085Z,47.07
2017-11-03T20:58:24.940Z,55.67
2017-11-03T21:00:52.636Z,60.33
2017-11-03T21:03:19.561Z,63.13
2017-11-03T21:05:46.525Z,51.08
2017-11-03T21:08:13.438Z,44.73
2017-11-03T21:10:42.104Z,54.60
2017-11-03T21:13:09.033Z,39.27
2017-11-03T21:15:43.556Z,37.20
2017-11-03T21:18:10.517Z,47.87
2017-11-03T21:20:41.671Z,48.10
2017-11-03T21:23:08.659Z,42.53
2017-11-03T21:25:37.179Z,46.90
2017-11-03T21:28:06.118Z,51.30
2017-11-03T21:30:33.037Z,47.07
2017-11-03T21:33:00.733Z,43.67
2017-11-03T21:35:28.586Z,50.20
2017-11-03T21:37:55.552Z,53.07
2017-11-03T21:40:22.485Z,51.23
2017-11-03T21:42:49.411Z,47.07
2017-11-03T21:45:16.319Z,50.27
2017-11-03T21:47:43.259Z,46.00
2017-11-03T21:50:12.244Z,51.50
2017-11-03T21:52:40.141Z,50.63
2017-11-03T21:55:07.848Z,46.17
2017-11-03T21:57:35.820Z,55.07
2017-11-03T22:00:02.753Z,48.40
2017-11-03T22:02:31.618Z,44.13
2017-11-03T22:05:01.781Z,57.77
2017-11-03T22:07:29.729Z,53.50
2017-11-03T22:10:03.029Z,52.87
2017-11-03T22:12:29.949Z,59.10
2017-11-03T22:14:56.874Z,60.30
2017-11-03T22:17:24.562Z,62.57
2017-11-03T22:19:51.476Z,66.77
2017-11-03T22:22:19.156Z,63.20
2017-11-03T22:24:46.846Z,71.07
2017-11-03T22:27:14.657Z,65.60
2017-11-03T22:29:42.544Z,66.73
2017-11-03T22:32:09.461Z,69.43
2017-11-03T22:34:36.392Z,72.33
2017-11-03T22:37:05.236Z,88.10
2017-11-03T22:39:34.138Z,80.57
2017-11-03T22:42:01.084Z,76.13
2017-11-03T22:44:28.034Z,71.10
2017-11-03T22:46:54.963Z,83.13
2017-11-03T22:49:21.896Z,89.70
2017-11-03T22:51:48.847Z,92.20
2017-11-03T22:54:15.786Z,86.70
2017-11-03T22:56:43.632Z,99.07
2017-11-03T22:59:11.340Z,83.63
2017-11-03T23:01:47.661Z,95.37
2017-11-03T23:04:14.620Z,101.13
2017-11-03T23:06:42.296Z,84.10
2017-11-03T23:09:09.232Z,94.50
2017-11-03T23:11:36.133Z,97.30
2017-11-03T23:14:04.052Z,85.47
2017-11-03T23:16:31.956Z,98.77
2017-11-03T23:18:58.876Z,88.17
2017-11-03T23:21:25.788Z,102.27
2017-11-03T23:23:54.715Z,96.20
2017-11-03T23:26:21.620Z,98.07
2017-11-03T23:28:48.553Z,87.23
2017-11-03T23:31:15.465Z,101.60
2017-11-03T23:33:42.404Z,99.33
2017-11-03T23:36:09.316Z,91.13
2017-11-03T23:38:37.215Z,188.47
2017-11-03T23:41:04.184Z,93.97
2017-11-03T23:43:31.108Z,104.17
2017-11-03T23:45:58.008Z,92.83
2017-11-03T23:48:25.712Z,104.40
2017-11-03T23:50:53.507Z,92.70
2017-11-03T23:53:20.418Z,103.20
2017-11-03T23:55:48.325Z,96.63
2017-11-03T23:58:15.222Z,99.87
